createdAt,value
2023-05-11T00:00:04.897Z,10.20
2023-05-11T00:01:04.865Z,10.30
2023-05-11T00:02:04.861Z,13.00
2023-05-11T00:03:04.888Z,10.10
2023-05-11T00:04:04.969Z,11.30
2023-05-11T00:05:04.806Z,10.40
2023-05-11T00:06:04.755Z,10.60
2023-05-11T00:07:04.732Z,11.50
2023-05-11T00:08:04.710Z,9.80
2023-05-11T00:09:04.694Z,9.90
2023-05-11T00:10:04.719Z,9.80
2023-05-11T00:11:04.644Z,9.90
2023-05-11T00:12:04.659Z,9.90
2023-05-11T00:13:04.613Z,10.10
2023-05-11T00:14:04.603Z,12.30
2023-05-11T00:15:04.556Z,10.60
2023-05-11T00:16:04.620Z,10.50
2023-05-11T00:17:04.515Z,11.00
2023-05-11T00:18:04.516Z,10.40
2023-05-11T00:19:04.531Z,10.60
2023-05-11T00:20:04.458Z,10.70
2023-05-11T00:21:04.426Z,10.70
2023-05-11T00:22:04.414Z,9.70
2023-05-11T00:23:04.395Z,9.80
2023-05-11T00:24:04.379Z,10.10
2023-05-11T00:25:04.352Z,10.40
2023-05-11T00:26:04.377Z,11.40
2023-05-11T00:27:04.308Z,10.30
2023-05-11T00:28:04.275Z,12.40
2023-05-11T00:29:04.295Z,10.80
2023-05-11T00:30:04.266Z,11.50
2023-05-11T00:31:04.244Z,10.60
2023-05-11T00:32:04.185Z,11.10
2023-05-11T00:33:04.217Z,10.70
2023-05-11T00:34:04.185Z,10.20
2023-05-11T00:35:04.169Z,12.10
2023-05-11T00:36:04.119Z,10.60
2023-05-11T00:37:04.076Z,12.20
2023-05-11T00:38:04.053Z,10.00
2023-05-11T00:39:04.044Z,9.80
2023-05-11T00:40:04.019Z,10.50
2023-05-11T00:41:03.986Z,10.20
2023-05-11T00:42:03.975Z,10.20
2023-05-11T00:43:03.942Z,11.10
2023-05-11T00:44:03.925Z,11.30
2023-05-11T00:45:03.908Z,11.60
2023-05-11T00:46:03.917Z,10.30
2023-05-11T00:47:03.939Z,12.90
2023-05-11T00:48:03.902Z,10.50
2023-05-11T00:49:03.831Z,10.10
2023-05-11T00:50:03.803Z,10.40
2023-05-11T00:51:03.771Z,11.30
2023-05-11T00:52:03.765Z,9.80
2023-05-11T00:53:03.734Z,9.90
2023-05-11T00:54:03.709Z,9.90
2023-05-11T00:55:03.681Z,10.60
2023-05-11T00:56:03.660Z,9.70
2023-05-11T00:57:03.639Z,11.60
2023-05-11T00:58:03.614Z,9.60
2023-05-11T00:59:03.590Z,9.50
2023-05-11T01:00:03.615Z,9.90
2023-05-11T01:01:03.711Z,9.80
2023-05-11T01:02:03.588Z,9.50
2023-05-11T01:03:03.567Z,10.10
2023-05-11T01:04:03.506Z,11.70
2023-05-11T01:05:03.467Z,10.60
2023-05-11T01:06:03.438Z,10.60
2023-05-11T01:07:03.425Z,11.40
2023-05-11T01:08:03.400Z,9.70
2023-05-11T01:09:03.377Z,11.50
2023-05-11T01:10:03.353Z,10.80
2023-05-11T01:11:03.385Z,10.00
2023-05-11T01:12:03.308Z,10.20
2023-05-11T01:13:03.298Z,12.00
2023-05-11T01:14:03.275Z,10.60
2023-05-11T01:15:03.255Z,9.90
2023-05-11T01:16:03.231Z,10.20
2023-05-11T01:17:03.264Z,9.60
2023-05-11T01:18:03.253Z,10.90
2023-05-11T01:19:03.224Z,10.60
2023-05-11T01:20:03.142Z,9.40
2023-05-11T01:21:03.136Z,9.40
2023-05-11T01:22:03.093Z,10.00
2023-05-11T01:23:03.077Z,9.10
2023-05-11T01:24:03.060Z,9.80
2023-05-11T01:25:03.042Z,9.40
2023-05-11T01:26:03.021Z,9.40
2023-05-11T01:27:02.990Z,9.00
2023-05-11T01:28:02.969Z,10.00
2023-05-11T01:29:02.960Z,7.90
2023-05-11T01:30:02.929Z,9.40
2023-05-11T01:31:02.928Z,8.90
2023-05-11T01:32:02.946Z,9.00
2023-05-11T01:33:02.898Z,9.70
2023-05-11T01:34:02.864Z,9.70
2023-05-11T01:35:02.837Z,9.90
2023-05-11T01:36:02.790Z,8.90
2023-05-11T01:37:02.775Z,8.90
2023-05-11T01:38:02.750Z,9.00
2023-05-11T01:39:02.721Z,9.20
2023-05-11T01:40:02.732Z,9.90
2023-05-11T01:41:02.683Z,9.90
2023-05-11T01:42:02.652Z,9.40
2023-05-11T01:43:02.644Z,9.20
2023-05-11T01:44:02.616Z,8.80
2023-05-11T01:45:02.597Z,10.90
2023-05-11T01:46:02.649Z,9.80
2023-05-11T01:47:02.551Z,8.90
2023-05-11T01:48:02.634Z,9.90
2023-05-11T01:49:02.502Z,8.80
2023-05-11T01:50:02.509Z,10.20
2023-05-11T01:51:02.463Z,9.10
2023-05-11T01:52:02.436Z,9.70
2023-05-11T01:53:02.413Z,8.60
2023-05-11T01:54:02.397Z,8.00
2023-05-11T01:55:02.374Z,9.00
2023-05-11T01:56:02.364Z,9.10
2023-05-11T01:57:02.328Z,8.90
2023-05-11T01:58:02.319Z,10.30
2023-05-11T01:59:02.284Z,8.40
2023-05-11T02:00:02.271Z,8.30
2023-05-11T02:01:02.268Z,9.30
2023-05-11T02:02:02.219Z,9.00
2023-05-11T02:03:02.499Z,9.40
2023-05-11T02:04:02.182Z,9.60
2023-05-11T02:05:02.149Z,9.50
2023-05-11T02:06:02.156Z,10.40
2023-05-11T02:07:02.105Z,9.20
2023-05-11T02:08:02.084Z,8.30
2023-05-11T02:09:02.068Z,8.50
2023-05-11T02:10:02.118Z,8.80
2023-05-11T02:11:02.023Z,8.20
2023-05-11T02:12:02.002Z,7.60
2023-05-11T02:13:01.975Z,9.50
2023-05-11T02:14:01.978Z,8.50
2023-05-11T02:15:01.930Z,10.10
2023-05-11T02:16:01.980Z,10.40
2023-05-11T02:17:01.886Z,10.40
2023-05-11T02:18:01.906Z,9.10
2023-05-11T02:19:01.990Z,10.80
2023-05-11T02:20:01.834Z,9.80
2023-05-11T02:21:01.806Z,9.80
2023-05-11T02:22:01.803Z,9.20
2023-05-11T02:23:01.768Z,10.10
2023-05-11T02:24:01.742Z,9.40
2023-05-11T02:25:01.729Z,9.20
2023-05-11T02:26:01.700Z,9.40
2023-05-11T02:27:01.682Z,10.60
2023-05-11T02:28:01.655Z,9.50
2023-05-11T02:29:01.625Z,9.00
2023-05-11T02:30:01.606Z,9.90
2023-05-11T02:31:01.672Z,10.10
2023-05-11T02:32:01.562Z,10.80
2023-05-11T02:33:01.604Z,10.50
2023-05-11T02:34:01.528Z,9.10
2023-05-11T02:35:01.493Z,10.20
2023-05-11T02:36:01.466Z,10.80
2023-05-11T02:37:01.456Z,9.80
2023-05-11T02:38:01.473Z,10.20
2023-05-11T02:39:01.406Z,10.40
2023-05-11T02:40:01.393Z,9.60
2023-05-11T02:41:01.369Z,10.90
2023-05-11T02:42:01.330Z,9.80
2023-05-11T02:43:01.319Z,11.30
2023-05-11T02:44:01.300Z,11.80
2023-05-11T02:45:01.284Z,10.90
2023-05-11T02:46:01.245Z,10.00
2023-05-11T02:47:01.369Z,9.20
2023-05-11T02:48:01.232Z,11.00
2023-05-11T02:49:01.357Z,11.00
2023-05-11T02:50:01.165Z,10.40
2023-05-11T02:51:01.139Z,10.20
2023-05-11T02:52:01.137Z,10.30
2023-05-11T02:53:01.094Z,12.90
2023-05-11T02:54:01.100Z,10.60
2023-05-11T02:55:01.051Z,11.90
2023-05-11T02:56:01.032Z,12.00
2023-05-11T02:57:01.010Z,10.20
2023-05-11T02:58:01.049Z,10.00
2023-05-11T02:59:00.966Z,10.10
2023-05-11T03:00:00.958Z,11.10
2023-05-11T03:01:00.980Z,9.50
2023-05-11T03:02:01.151Z,8.80
2023-05-11T03:03:00.990Z,9.50
2023-05-11T03:04:00.873Z,9.10
2023-05-11T03:05:00.848Z,9.90
2023-05-11T03:06:00.800Z,10.00
2023-05-11T03:07:00.780Z,11.10
2023-05-11T03:08:00.760Z,9.20
2023-05-11T03:09:00.742Z,9.00
2023-05-11T03:10:00.739Z,9.20
2023-05-11T03:11:00.699Z,9.30
2023-05-11T03:12:00.671Z,9.50
2023-05-11T03:13:00.654Z,10.40
2023-05-11T03:14:00.625Z,9.30
2023-05-11T03:15:00.611Z,9.90
2023-05-11T03:16:00.583Z,9.10
2023-05-11T03:17:00.608Z,10.40
2023-05-11T03:18:00.610Z,10.20
2023-05-11T03:19:00.540Z,11.10
2023-05-11T03:20:00.496Z,9.80
2023-05-11T03:21:00.476Z,8.70
2023-05-11T03:22:00.454Z,8.90
2023-05-11T03:23:00.439Z,9.60
2023-05-11T03:24:00.423Z,9.50
2023-05-11T03:25:00.392Z,9.70
2023-05-11T03:26:00.389Z,9.10
2023-05-11T03:27:00.345Z,10.20
2023-05-11T03:28:00.357Z,10.10
2023-05-11T03:29:00.315Z,11.00
2023-05-11T03:30:00.273Z,10.10
2023-05-11T03:31:00.288Z,10.40
2023-05-11T03:32:00.335Z,9.70
2023-05-11T03:33:00.277Z,10.00
2023-05-11T03:34:00.214Z,9.60
2023-05-11T03:35:00.203Z,10.50
2023-05-11T03:36:00.154Z,9.90
2023-05-11T03:37:00.137Z,10.30
2023-05-11T03:38:00.122Z,9.60
2023-05-11T03:39:00.090Z,10.60
2023-05-11T03:40:00.061Z,10.20
2023-05-11T03:41:00.040Z,9.90
2023-05-11T03:42:00.034Z,9.80
2023-05-11T03:42:59.992Z,11.10
2023-05-11T03:43:59.978Z,11.40
2023-05-11T03:44:59.990Z,10.40
2023-05-11T03:45:59.935Z,9.40
2023-05-11T03:46:59.916Z,9.10
2023-05-11T03:47:59.897Z,9.30
2023-05-11T03:48:59.871Z,9.60
2023-05-11T03:49:59.844Z,9.60
2023-05-11T03:50:59.820Z,9.50
2023-05-11T03:51:59.797Z,10.00
2023-05-11T03:52:59.794Z,9.70
2023-05-11T03:53:59.752Z,9.30
2023-05-11T03:54:59.728Z,9.80
2023-05-11T03:55:59.702Z,10.10
2023-05-11T03:56:59.688Z,9.20
2023-05-11T03:58:00.482Z,9.20
2023-05-11T03:58:59.640Z,9.00
2023-05-11T03:59:59.614Z,10.30
2023-05-11T04:00:59.603Z,9.50
2023-05-11T04:01:59.575Z,10.10
2023-05-11T04:02:59.652Z,10.50
2023-05-11T04:03:59.569Z,10.60
2023-05-11T04:04:59.522Z,10.50
2023-05-11T04:05:59.478Z,11.50
2023-05-11T04:06:59.467Z,10.40
2023-05-11T04:07:59.434Z,9.40
2023-05-11T04:08:59.410Z,9.70
2023-05-11T04:09:59.396Z,10.30
2023-05-11T04:10:59.368Z,11.20
2023-05-11T04:11:59.358Z,12.90
2023-05-11T04:12:59.340Z,10.50
2023-05-11T04:13:59.331Z,10.60
2023-05-11T04:14:59.286Z,12.10
2023-05-11T04:15:59.272Z,10.70
2023-05-11T04:16:59.246Z,10.60
2023-05-11T04:17:59.262Z,10.40
2023-05-11T04:18:59.256Z,11.70
2023-05-11T04:19:59.169Z,10.20
2023-05-11T04:20:59.152Z,11.10
2023-05-11T04:21:59.125Z,12.90
2023-05-11T04:22:59.107Z,11.60
2023-05-11T04:23:59.082Z,11.20
2023-05-11T04:24:59.062Z,12.10
2023-05-11T04:25:59.040Z,12.70
2023-05-11T04:26:59.020Z,11.90
2023-05-11T04:27:59.001Z,10.70
2023-05-11T04:28:58.979Z,11.50
2023-05-11T04:29:58.971Z,13.40
2023-05-11T04:30:58.944Z,11.50
2023-05-11T04:31:59.009Z,12.00
2023-05-11T04:32:58.947Z,11.60
2023-05-11T04:33:58.866Z,12.60
2023-05-11T04:34:58.837Z,14.40
2023-05-11T04:35:58.868Z,11.30
2023-05-11T04:36:58.800Z,14.50
2023-05-11T04:37:58.773Z,11.50
2023-05-11T04:38:58.762Z,12.30
2023-05-11T04:39:58.732Z,13.10
2023-05-11T04:40:58.712Z,13.60
2023-05-11T04:41:58.692Z,12.20
2023-05-11T04:42:58.668Z,14.70
2023-05-11T04:43:58.638Z,12.00
2023-05-11T04:44:58.620Z,13.30
2023-05-11T04:45:58.613Z,12.00
2023-05-11T04:46:58.636Z,12.40
2023-05-11T04:47:58.630Z,14.00
2023-05-11T04:48:58.530Z,12.20
2023-05-11T04:49:58.504Z,11.60
2023-05-11T04:50:58.489Z,12.20
2023-05-11T04:51:58.464Z,13.00
2023-05-11T04:52:58.448Z,12.50
2023-05-11T04:53:58.421Z,13.10
2023-05-11T04:54:58.400Z,14.00
2023-05-11T04:55:58.377Z,13.90
2023-05-11T04:56:58.367Z,12.00
2023-05-11T04:57:58.337Z,11.50
2023-05-11T04:58:58.311Z,12.00
2023-05-11T04:59:58.349Z,13.30
2023-05-11T05:00:58.285Z,12.60
2023-05-11T05:01:58.263Z,11.90
2023-05-11T05:02:58.261Z,13.50
2023-05-11T05:03:58.284Z,11.90
2023-05-11T05:04:58.184Z,13.00
2023-05-11T05:05:58.152Z,12.50
2023-05-11T05:06:58.137Z,13.10
2023-05-11T05:07:58.119Z,13.60
2023-05-11T05:08:58.094Z,12.40
2023-05-11T05:09:58.079Z,13.00
2023-05-11T05:10:58.053Z,14.00
2023-05-11T05:11:58.028Z,14.70
2023-05-11T05:12:58.017Z,15.00
2023-05-11T05:13:57.983Z,15.90
2023-05-11T05:14:57.962Z,18.20
2023-05-11T05:15:57.943Z,15.80
2023-05-11T05:16:57.966Z,16.20
2023-05-11T05:17:57.958Z,15.70
2023-05-11T05:18:57.891Z,16.70
2023-05-11T05:19:57.859Z,16.80
2023-05-11T05:20:57.823Z,16.60
2023-05-11T05:21:57.812Z,16.20
2023-05-11T05:22:57.785Z,16.30
2023-05-11T05:23:57.764Z,16.30
2023-05-11T05:24:57.733Z,16.30
2023-05-11T05:25:57.717Z,17.20
2023-05-11T05:26:57.704Z,14.90
2023-05-11T05:27:57.678Z,16.90
2023-05-11T05:28:57.669Z,15.60
2023-05-11T05:29:57.631Z,16.20
2023-05-11T05:30:57.624Z,16.90
2023-05-11T05:31:57.587Z,15.70
2023-05-11T05:32:57.583Z,15.30
2023-05-11T05:33:57.573Z,16.60
2023-05-11T05:34:57.521Z,16.80
2023-05-11T05:35:57.500Z,14.90
2023-05-11T05:36:57.470Z,14.80
2023-05-11T05:37:57.460Z,15.40
2023-05-11T05:38:57.432Z,15.70
2023-05-11T05:39:57.433Z,15.40
2023-05-11T05:40:57.398Z,15.70
2023-05-11T05:41:57.382Z,16.00
2023-05-11T05:42:57.355Z,15.50
2023-05-11T05:43:57.330Z,16.20
2023-05-11T05:44:57.299Z,14.90
2023-05-11T05:45:57.302Z,16.10
2023-05-11T05:46:57.265Z,16.00
2023-05-11T05:47:57.253Z,15.50
2023-05-11T05:48:57.225Z,15.80
2023-05-11T05:49:57.209Z,15.50
2023-05-11T05:50:57.172Z,15.80
2023-05-11T05:51:57.145Z,15.90
2023-05-11T05:52:57.125Z,15.50
2023-05-11T05:53:57.111Z,15.60
2023-05-11T05:54:57.099Z,16.00
2023-05-11T05:55:57.057Z,15.60
2023-05-11T05:56:57.036Z,15.50
2023-05-11T05:57:57.012Z,17.10
2023-05-11T05:58:56.988Z,16.40
2023-05-11T05:59:56.975Z,16.10
2023-05-11T06:00:56.950Z,17.30
2023-05-11T06:01:56.924Z,16.30
2023-05-11T06:02:57.044Z,16.80
2023-05-11T06:03:57.128Z,16.40
2023-05-11T06:04:56.963Z,17.20
2023-05-11T06:05:56.861Z,17.10
2023-05-11T06:06:56.813Z,19.00
2023-05-11T06:08:09.340Z,20.70
2023-05-11T06:08:56.763Z,17.90
2023-05-11T06:09:56.749Z,17.90
2023-05-11T06:10:56.724Z,18.40
2023-05-11T06:11:56.710Z,18.30
2023-05-11T06:12:56.683Z,17.10
2023-05-11T06:13:56.661Z,16.60
2023-05-11T06:14:56.641Z,17.60
2023-05-11T06:15:56.641Z,17.70
2023-05-11T06:16:56.593Z,16.70
2023-05-11T06:17:56.671Z,17.10
2023-05-11T06:18:56.567Z,17.50
2023-05-11T06:19:56.544Z,18.50
2023-05-11T06:20:56.505Z,17.50
2023-05-11T06:21:56.508Z,17.70
2023-05-11T06:22:56.471Z,19.10
2023-05-11T06:23:56.450Z,18.00
2023-05-11T06:24:56.413Z,18.40
2023-05-11T06:25:56.407Z,19.80
2023-05-11T06:26:56.384Z,18.70
2023-05-11T06:27:56.355Z,17.70
2023-05-11T06:28:56.322Z,18.30
2023-05-11T06:29:56.314Z,16.80
2023-05-11T06:30:56.287Z,19.40
2023-05-11T06:31:56.319Z,18.20
2023-05-11T06:32:56.273Z,18.30
2023-05-11T06:33:56.223Z,20.00
2023-05-11T06:34:56.196Z,19.30
2023-05-11T06:35:56.182Z,19.80
2023-05-11T06:36:56.150Z,18.30
2023-05-11T06:37:56.158Z,19.40
2023-05-11T06:38:56.119Z,18.80
2023-05-11T06:39:56.099Z,19.80
2023-05-11T06:40:56.072Z,19.80
2023-05-11T06:41:57.654Z,20.90
2023-05-11T06:42:56.032Z,19.30
2023-05-11T06:43:56.039Z,19.70
2023-05-11T06:44:56.032Z,20.30
2023-05-11T06:45:55.995Z,20.00
2023-05-11T06:46:55.959Z,19.50
2023-05-11T06:47:55.942Z,21.50
2023-05-11T06:48:55.892Z,20.80
2023-05-11T06:49:55.873Z,20.50
2023-05-11T06:50:55.850Z,19.40
2023-05-11T06:51:55.852Z,20.20
2023-05-11T06:52:55.810Z,20.50
2023-05-11T06:53:55.816Z,20.40
2023-05-11T06:54:55.773Z,20.40
2023-05-11T06:55:55.746Z,20.70
2023-05-11T06:56:55.721Z,20.50
2023-05-11T06:57:55.705Z,19.60
2023-05-11T06:58:55.680Z,19.80
2023-05-11T06:59:55.658Z,19.60
2023-05-11T07:00:55.795Z,21.00
2023-05-11T07:01:55.620Z,19.40
2023-05-11T07:02:55.620Z,20.20
2023-05-11T07:03:55.572Z,20.30
2023-05-11T07:04:55.547Z,18.80
2023-05-11T07:05:55.528Z,19.50
2023-05-11T07:06:55.507Z,18.60
2023-05-11T07:07:55.491Z,19.50
2023-05-11T07:08:55.464Z,20.30
2023-05-11T07:09:55.476Z,20.80
2023-05-11T07:10:55.414Z,19.00
2023-05-11T07:11:55.393Z,20.30
2023-05-11T07:12:55.374Z,18.70
2023-05-11T07:13:55.354Z,21.00
2023-05-11T07:14:55.334Z,20.10
2023-05-11T07:15:57.636Z,18.60
2023-05-11T07:16:55.341Z,18.80
2023-05-11T07:17:55.359Z,18.40
2023-05-11T07:18:55.258Z,18.70
2023-05-11T07:19:55.235Z,17.60
2023-05-11T07:20:55.195Z,19.60
2023-05-11T07:21:55.176Z,19.20
2023-05-11T07:22:55.156Z,19.50
2023-05-11T07:23:55.139Z,20.00
2023-05-11T07:24:55.113Z,19.70
2023-05-11T07:25:55.116Z,19.60
2023-05-11T07:26:55.066Z,20.80
2023-05-11T07:27:55.056Z,19.50
2023-05-11T07:28:55.029Z,22.00
2023-05-11T07:29:55.011Z,21.20
2023-05-11T07:30:54.978Z,20.00
2023-05-11T07:31:55.058Z,19.90
2023-05-11T07:32:55.052Z,20.70
2023-05-11T07:33:54.927Z,22.50
2023-05-11T07:34:54.886Z,21.50
2023-05-11T07:35:54.876Z,21.20
2023-05-11T07:36:54.850Z,21.30
2023-05-11T07:37:54.826Z,21.60
2023-05-11T07:38:54.800Z,20.90
2023-05-11T07:39:54.790Z,21.70
2023-05-11T07:40:54.765Z,23.30
2023-05-11T07:41:54.760Z,21.30
2023-05-11T07:42:54.716Z,22.00
2023-05-11T07:43:54.699Z,20.90
2023-05-11T07:44:54.666Z,20.70
2023-05-11T07:45:54.757Z,20.20
2023-05-11T07:46:54.629Z,21.60
2023-05-11T07:47:54.636Z,21.20
2023-05-11T07:49:03.400Z,20.50
2023-05-11T07:49:54.561Z,21.80
2023-05-11T07:50:54.544Z,21.10
2023-05-11T07:51:54.534Z,22.10
2023-05-11T07:52:54.499Z,21.70
2023-05-11T07:53:54.479Z,20.60
2023-05-11T07:54:54.459Z,20.80
2023-05-11T07:55:54.445Z,20.00
2023-05-11T07:56:54.416Z,19.20
2023-05-11T07:57:54.413Z,19.30
2023-05-11T07:58:54.360Z,17.00
2023-05-11T07:59:54.351Z,20.90
2023-05-11T08:00:54.333Z,17.70
2023-05-11T08:01:54.350Z,19.40
2023-05-11T08:02:54.370Z,19.50
2023-05-11T08:03:54.258Z,18.20
2023-05-11T08:04:54.235Z,19.10
2023-05-11T08:05:54.321Z,18.50
2023-05-11T08:06:54.188Z,18.30
2023-05-11T08:07:54.169Z,19.00
2023-05-11T08:08:54.157Z,19.30
2023-05-11T08:09:54.132Z,19.90
2023-05-11T08:10:54.096Z,18.80
2023-05-11T08:11:54.092Z,18.80
2023-05-11T08:12:54.059Z,17.70
2023-05-11T08:13:54.134Z,17.80
2023-05-11T08:14:54.016Z,18.80
2023-05-11T08:15:54.014Z,19.60
2023-05-11T08:16:53.983Z,17.90
2023-05-11T08:17:54.001Z,17.70
2023-05-11T08:18:54.089Z,18.70
2023-05-11T08:19:53.921Z,18.40
2023-05-11T08:20:53.890Z,18.30
2023-05-11T08:21:53.868Z,18.50
2023-05-11T08:22:53.857Z,17.80
2023-05-11T08:23:53.818Z,18.70
2023-05-11T08:24:53.825Z,15.90
2023-05-11T08:25:53.780Z,17.10
2023-05-11T08:26:53.758Z,16.90
2023-05-11T08:27:53.743Z,15.30
2023-05-11T08:28:53.716Z,15.40
2023-05-11T08:29:53.722Z,15.30
2023-05-11T08:30:53.669Z,14.80
2023-05-11T08:31:53.776Z,15.50
2023-05-11T08:32:58.386Z,15.90
2023-05-11T08:33:53.807Z,14.90
2023-05-11T08:34:53.794Z,15.30
2023-05-11T08:35:53.577Z,15.50
2023-05-11T08:36:53.544Z,16.80
2023-05-11T08:37:53.536Z,16.10
2023-05-11T08:38:57.071Z,16.80
2023-05-11T08:39:53.484Z,16.00
2023-05-11T08:40:53.471Z,17.30
2023-05-11T08:41:53.461Z,17.00
2023-05-11T08:42:53.416Z,15.20
2023-05-11T08:43:53.402Z,15.90
2023-05-11T08:44:53.378Z,16.70
2023-05-11T08:45:53.391Z,17.10
2023-05-11T08:47:01.550Z,17.20
2023-05-11T08:47:53.354Z,16.60
2023-05-11T08:48:53.291Z,15.50
2023-05-11T08:49:53.299Z,16.10
2023-05-11T08:50:53.244Z,15.50
2023-05-11T08:51:53.219Z,14.90
2023-05-11T08:52:53.197Z,14.90
2023-05-11T08:53:53.222Z,14.30
2023-05-11T08:54:53.156Z,14.20
2023-05-11T08:55:53.138Z,14.40
2023-05-11T08:56:53.113Z,13.90
2023-05-11T08:57:53.091Z,14.70
2023-05-11T08:58:54.192Z,15.00
2023-05-11T08:59:53.052Z,15.20
2023-05-11T09:00:53.037Z,15.10
2023-05-11T09:01:53.159Z,14.60
2023-05-11T09:02:53.035Z,14.00
2023-05-11T09:03:52.960Z,14.40
2023-05-11T09:04:52.986Z,14.30
2023-05-11T09:05:52.962Z,14.10
2023-05-11T09:06:52.897Z,14.50
2023-05-11T09:07:52.878Z,14.50
2023-05-11T09:08:52.852Z,15.00
2023-05-11T09:09:52.843Z,13.60
2023-05-11T09:10:52.808Z,15.30
2023-05-11T09:11:52.782Z,14.80
2023-05-11T09:12:52.770Z,14.40
2023-05-11T09:13:52.744Z,14.20
2023-05-11T09:14:52.722Z,13.80
2023-05-11T09:15:52.739Z,11.70
2023-05-11T09:16:52.719Z,10.70
2023-05-11T09:17:52.736Z,9.70
2023-05-11T09:18:52.718Z,9.40
2023-05-11T09:19:52.615Z,9.70
2023-05-11T09:20:52.605Z,10.00
2023-05-11T09:21:52.571Z,9.30
2023-05-11T09:22:52.559Z,11.40
2023-05-11T09:23:52.523Z,8.50
2023-05-11T09:24:52.508Z,8.90
2023-05-11T09:25:52.486Z,7.30
2023-05-11T09:26:52.472Z,8.30
2023-05-11T09:27:52.444Z,6.80
2023-05-11T09:29:02.457Z,6.70
2023-05-11T09:29:52.398Z,7.50
2023-05-11T09:30:52.378Z,8.60
2023-05-11T09:31:52.386Z,6.10
2023-05-11T09:32:52.573Z,6.10
2023-05-11T09:33:52.383Z,5.60
2023-05-11T09:34:52.300Z,6.50
2023-05-11T09:35:52.269Z,6.00
2023-05-11T09:36:52.260Z,5.00
2023-05-11T09:37:52.220Z,5.60
2023-05-11T09:38:57.356Z,5.60
2023-05-11T09:40:24.955Z,5.40
2023-05-11T09:40:52.180Z,6.20
2023-05-11T09:41:52.654Z,5.70
2023-05-11T09:42:52.135Z,4.90
2023-05-11T09:43:52.100Z,5.30
2023-05-11T09:44:52.076Z,4.60
2023-05-11T09:45:52.072Z,6.30
2023-05-11T09:46:52.122Z,7.40
2023-05-11T09:47:52.043Z,5.20
2023-05-11T09:48:51.999Z,5.90
2023-05-11T09:49:51.987Z,6.30
2023-05-11T09:50:51.958Z,6.50
2023-05-11T09:51:51.932Z,5.30
2023-05-11T09:52:51.961Z,5.30
2023-05-11T09:53:51.887Z,5.50
2023-05-11T09:54:52.033Z,4.90
2023-05-11T09:55:51.843Z,5.00
2023-05-11T09:56:51.825Z,5.20
2023-05-11T09:57:51.798Z,5.30
2023-05-11T09:58:51.801Z,5.80
2023-05-11T09:59:51.763Z,5.10
2023-05-11T10:00:51.750Z,5.90
2023-05-11T10:01:51.741Z,5.00
2023-05-11T10:02:51.765Z,5.80
2023-05-11T10:03:52.024Z,4.80
2023-05-11T10:04:51.660Z,6.10
2023-05-11T10:05:51.801Z,5.00
2023-05-11T10:06:51.615Z,5.70
2023-05-11T10:07:51.587Z,4.90
2023-05-11T10:08:51.565Z,4.80
2023-05-11T10:09:51.543Z,4.80
2023-05-11T10:10:51.520Z,6.30
2023-05-11T10:11:51.525Z,5.40
2023-05-11T10:12:51.486Z,5.50
2023-05-11T10:13:51.470Z,5.60
2023-05-11T10:14:51.439Z,5.00
2023-05-11T10:15:51.441Z,6.30
2023-05-11T10:16:51.401Z,6.10
2023-05-11T10:17:51.391Z,5.20
2023-05-11T10:18:51.368Z,6.60
2023-05-11T10:19:51.337Z,4.90
2023-05-11T10:20:51.316Z,5.20
2023-05-11T10:21:51.340Z,5.30
2023-05-11T10:22:51.267Z,5.90
2023-05-11T10:23:51.243Z,6.90
2023-05-11T10:24:51.227Z,7.50
2023-05-11T10:25:51.202Z,9.50
2023-05-11T10:26:51.186Z,9.90
2023-05-11T10:27:51.164Z,9.00
2023-05-11T10:28:51.135Z,9.40
2023-05-11T10:29:51.117Z,9.70
2023-05-11T10:30:51.095Z,10.10
2023-05-11T10:31:51.208Z,9.80
2023-05-11T10:32:51.086Z,8.20
2023-05-11T10:33:51.025Z,8.70
2023-05-11T10:34:51.040Z,9.60
2023-05-11T10:35:52.637Z,9.20
2023-05-11T10:36:50.969Z,9.60
2023-05-11T10:37:50.960Z,8.70
2023-05-11T10:38:50.930Z,8.40
2023-05-11T10:39:50.897Z,10.00
2023-05-11T10:40:50.886Z,8.30
2023-05-11T10:41:50.853Z,8.00
2023-05-11T10:42:50.840Z,8.00
2023-05-11T10:43:50.812Z,7.10
2023-05-11T10:44:50.794Z,7.60
2023-05-11T10:45:50.805Z,6.80
2023-05-11T10:46:50.764Z,7.00
2023-05-11T10:47:50.783Z,8.90
2023-05-11T10:48:50.704Z,9.40
2023-05-11T10:49:50.679Z,6.50
2023-05-11T10:50:50.664Z,6.00
2023-05-11T10:51:50.635Z,7.50
2023-05-11T10:52:50.621Z,7.70
2023-05-11T10:53:50.626Z,7.10
2023-05-11T10:54:50.578Z,7.80
2023-05-11T10:55:50.549Z,6.40
2023-05-11T10:56:50.548Z,8.20
2023-05-11T10:57:50.515Z,7.50
2023-05-11T10:58:50.509Z,6.50
2023-05-11T10:59:50.463Z,7.40
2023-05-11T11:00:50.517Z,6.40
2023-05-11T11:01:50.439Z,7.30
2023-05-11T11:02:50.457Z,6.40
2023-05-11T11:03:50.379Z,6.00
2023-05-11T11:04:50.364Z,5.50
2023-05-11T11:05:50.378Z,6.90
2023-05-11T11:06:50.315Z,6.70
2023-05-11T11:07:50.292Z,5.90
2023-05-11T11:08:50.280Z,5.70
2023-05-11T11:09:50.274Z,6.70
2023-05-11T11:10:50.244Z,5.70
2023-05-11T11:11:50.237Z,6.40
2023-05-11T11:12:50.189Z,6.90
2023-05-11T11:13:50.162Z,6.00
2023-05-11T11:14:50.139Z,5.80
2023-05-11T11:15:50.140Z,5.90
2023-05-11T11:16:50.132Z,6.20
2023-05-11T11:17:50.111Z,5.60
2023-05-11T11:18:50.089Z,6.90
2023-05-11T11:19:50.040Z,6.20
2023-05-11T11:20:50.017Z,6.90
2023-05-11T11:21:50.016Z,6.80
2023-05-11T11:22:49.984Z,7.00
2023-05-11T11:23:49.982Z,7.30
2023-05-11T11:24:49.930Z,6.80
2023-05-11T11:25:49.924Z,6.20
2023-05-11T11:26:49.898Z,6.60
2023-05-11T11:27:49.869Z,6.10
2023-05-11T11:28:49.843Z,5.90
2023-05-11T11:29:49.816Z,5.60
2023-05-11T11:30:49.863Z,5.20
2023-05-11T11:31:49.770Z,6.90
2023-05-11T11:32:49.901Z,5.70
2023-05-11T11:33:49.730Z,5.50
2023-05-11T11:34:49.712Z,6.40
2023-05-11T11:35:49.701Z,6.30
2023-05-11T11:36:49.672Z,5.20
2023-05-11T11:37:49.650Z,6.10
2023-05-11T11:38:49.634Z,6.50
2023-05-11T11:39:49.605Z,5.20
2023-05-11T11:40:51.075Z,5.90
2023-05-11T11:41:49.584Z,5.30
2023-05-11T11:42:49.544Z,5.00
2023-05-11T11:43:49.517Z,5.40
2023-05-11T11:44:49.497Z,5.90
2023-05-11T11:45:49.472Z,5.90
2023-05-11T11:46:49.473Z,5.30
2023-05-11T11:47:49.473Z,5.50
2023-05-11T11:48:49.410Z,5.30
2023-05-11T11:49:49.384Z,6.00
2023-05-11T11:50:49.365Z,5.60
2023-05-11T11:51:49.342Z,6.00
2023-05-11T11:52:49.329Z,6.70
2023-05-11T11:53:49.301Z,5.30
2023-05-11T11:54:49.282Z,5.00
2023-05-11T11:55:49.259Z,4.80
2023-05-11T11:56:49.241Z,5.60
2023-05-11T11:57:49.320Z,5.00
2023-05-11T11:58:49.194Z,5.20
2023-05-11T11:59:49.172Z,5.00
2023-05-11T12:00:49.150Z,5.00
2023-05-11T12:01:49.123Z,5.00
2023-05-11T12:02:49.182Z,5.90
2023-05-11T12:03:49.177Z,6.60
2023-05-11T12:04:49.086Z,6.50
2023-05-11T12:05:49.037Z,6.00
2023-05-11T12:06:49.034Z,5.50
2023-05-11T12:07:48.999Z,5.80
2023-05-11T12:08:48.982Z,5.60
2023-05-11T12:09:48.979Z,6.40
2023-05-11T12:10:48.927Z,5.40
2023-05-11T12:11:48.911Z,5.20
2023-05-11T12:12:48.968Z,5.60
2023-05-11T12:13:48.887Z,5.60
2023-05-11T12:14:49.105Z,6.10
2023-05-11T12:15:48.832Z,6.30
2023-05-11T12:16:48.872Z,5.70
2023-05-11T12:17:48.809Z,5.90
2023-05-11T12:18:48.792Z,6.00
2023-05-11T12:19:48.740Z,6.30
2023-05-11T12:20:48.732Z,5.70
2023-05-11T12:21:48.701Z,5.30
2023-05-11T12:22:48.682Z,5.10
2023-05-11T12:23:48.649Z,6.10
2023-05-11T12:24:48.632Z,5.40
2023-05-11T12:25:48.606Z,6.90
2023-05-11T12:26:48.592Z,7.70
2023-05-11T12:27:48.582Z,5.80
2023-05-11T12:28:48.552Z,6.20
2023-05-11T12:29:48.543Z,7.00
2023-05-11T12:30:48.506Z,6.30
2023-05-11T12:31:48.523Z,6.70
2023-05-11T12:32:48.610Z,5.60
2023-05-11T12:33:48.451Z,5.30
2023-05-11T12:34:48.422Z,5.50
2023-05-11T12:35:48.394Z,5.80
2023-05-11T12:36:48.393Z,5.40
2023-05-11T12:37:48.352Z,6.00
2023-05-11T12:38:48.346Z,5.90
2023-05-11T12:39:48.313Z,4.80
2023-05-11T12:40:48.291Z,5.30
2023-05-11T12:41:48.269Z,5.60
2023-05-11T12:42:48.250Z,4.90
2023-05-11T12:43:48.232Z,5.80
2023-05-11T12:44:48.221Z,5.10
2023-05-11T12:45:48.255Z,4.70
2023-05-11T12:46:48.163Z,6.00
2023-05-11T12:47:48.187Z,7.00
2023-05-11T12:48:48.130Z,4.50
2023-05-11T12:49:48.103Z,4.50
2023-05-11T12:50:48.083Z,5.70
2023-05-11T12:51:48.069Z,5.10
2023-05-11T12:52:48.047Z,4.60
2023-05-11T12:53:48.035Z,5.00
2023-05-11T12:54:48.000Z,4.50
2023-05-11T12:55:47.971Z,4.60
2023-05-11T12:56:47.957Z,4.80
2023-05-11T12:57:47.936Z,4.60
2023-05-11T12:58:47.936Z,4.50
2023-05-11T12:59:47.888Z,4.70
2023-05-11T13:00:47.864Z,4.50
2023-05-11T13:01:47.917Z,5.10
2023-05-11T13:02:47.927Z,5.50